RYR24Y GCFV-LEZL
Flight info
| Callsign | RYR24Y |
|---|---|
| Flight time | 1h 37m |
| Altitude | 32000 |
| Route | KORAL UN871 SONSO DCT NIRAL UN871 ADUBI DCT VJF |
| Aircraft | B738/M-SDE2E3FGHIRWXY/LB1 |
Departure
| Time | 2026-05-08 14:40 |
|---|---|
| Airport | Fuerteventura Airport (GCFV) |
Arrival
| Time | 2026-05-08 16:18 |
|---|---|
| Airport | Seville Airport (LEZL) |
| Time | Latitude | Longitude | Altitude | Speed | Heading |
|---|---|---|---|---|---|
| 2026-05-08 14:14 | 28.45127 | -13.86833 | 99 ft | 0 kts | 266° |
| 2026-05-08 14:22 | 28.45127 | -13.86827 | 100 ft | 4 kts | 266° |
| 2026-05-08 14:22 | 28.45128 | -13.86796 | 98 ft | 4 kts | 266° |
| 2026-05-08 14:22 | 28.45130 | -13.86770 | 98 ft | 4 kts | 272° |
| 2026-05-08 14:22 | 28.45124 | -13.86745 | 97 ft | 4 kts | 329° |
| 2026-05-08 14:23 | 28.45100 | -13.86741 | 97 ft | 4 kts | 9° |
| 2026-05-08 14:23 | 28.45084 | -13.86744 | 98 ft | 0 kts | 1° |
| 2026-05-08 14:26 | 28.45093 | -13.86744 | 98 ft | 5 kts | 1° |
| 2026-05-08 14:27 | 28.45132 | -13.86743 | 99 ft | 6 kts | 0° |
| 2026-05-08 14:27 | 28.45146 | -13.86743 | 98 ft | 7 kts | 0° |
| 2026-05-08 14:27 | 28.45202 | -13.86743 | 99 ft | 9 kts | 0° |
| 2026-05-08 14:27 | 28.45271 | -13.86742 | 99 ft | 11 kts | 0° |
| 2026-05-08 14:28 | 28.45351 | -13.86731 | 98 ft | 8 kts | 28° |
| 2026-05-08 14:28 | 28.45371 | -13.86668 | 97 ft | 10 kts | 92° |
| 2026-05-08 14:28 | 28.45379 | -13.86583 | 96 ft | 12 kts | 57° |
| 2026-05-08 14:28 | 28.45469 | -13.86564 | 96 ft | 15 kts | 1° |
| 2026-05-08 14:29 | 28.45576 | -13.86561 | 95 ft | 15 kts | 1° |
| 2026-05-08 14:29 | 28.45687 | -13.86556 | 98 ft | 16 kts | 2° |
| 2026-05-08 14:29 | 28.45805 | -13.86553 | 97 ft | 17 kts | 1° |
| 2026-05-08 14:29 | 28.45927 | -13.86549 | 99 ft | 18 kts | 2° |
| 2026-05-08 14:30 | 28.46055 | -13.86545 | 97 ft | 18 kts | 1° |
| 2026-05-08 14:30 | 28.46172 | -13.86542 | 98 ft | 13 kts | 2° |
| 2026-05-08 14:30 | 28.46276 | -13.86538 | 94 ft | 15 kts | 1° |
| 2026-05-08 14:30 | 28.46349 | -13.86482 | 89 ft | 15 kts | 88° |
| 2026-05-08 14:31 | 28.46345 | -13.86383 | 90 ft | 13 kts | 98° |
| 2026-05-08 14:31 | 28.46287 | -13.86341 | 87 ft | 0 kts | 189° |
| 2026-05-08 14:34 | 28.46288 | -13.86341 | 87 ft | 0 kts | 189° |
| 2026-05-08 14:39 | 28.46249 | -13.86343 | 89 ft | 24 kts | 180° |
| 2026-05-08 14:40 | 28.45837 | -13.86357 | 89 ft | 94 kts | 181° |
| 2026-05-08 14:40 | 28.44967 | -13.86382 | 66 ft | 154 kts | 181° |
| 2026-05-08 14:40 | 28.43738 | -13.86415 | 267 ft | 188 kts | 182° |
| 2026-05-08 14:40 | 28.42430 | -13.86360 | 1108 ft | 191 kts | 180° |
| 2026-05-08 14:41 | 28.41070 | -13.86488 | 1742 ft | 198 kts | 193° |
| 2026-05-08 14:41 | 28.39639 | -13.86687 | 2185 ft | 219 kts | 192° |
| 2026-05-08 14:41 | 28.38089 | -13.86991 | 2576 ft | 236 kts | 180° |
| 2026-05-08 14:41 | 28.36450 | -13.86792 | 3339 ft | 240 kts | 181° |
| 2026-05-08 14:42 | 28.34778 | -13.86734 | 4180 ft | 242 kts | 184° |
| 2026-05-08 14:42 | 28.33086 | -13.86741 | 4992 ft | 242 kts | 185° |
| 2026-05-08 14:42 | 28.31378 | -13.86772 | 5600 ft | 249 kts | 186° |
| 2026-05-08 14:42 | 28.29635 | -13.86811 | 6256 ft | 251 kts | 186° |
| 2026-05-08 14:43 | 28.27872 | -13.86853 | 7020 ft | 253 kts | 186° |
| 2026-05-08 14:43 | 28.26118 | -13.86929 | 7832 ft | 250 kts | 194° |
| 2026-05-08 14:43 | 28.24605 | -13.87704 | 8568 ft | 240 kts | 226° |
| 2026-05-08 14:43 | 28.23635 | -13.89216 | 9360 ft | 237 kts | 246° |
| 2026-05-08 14:44 | 28.23205 | -13.91027 | 10064 ft | 241 kts | 264° |
| 2026-05-08 14:44 | 28.23193 | -13.92944 | 10760 ft | 244 kts | 269° |
| 2026-05-08 14:44 | 28.23405 | -13.94892 | 11234 ft | 262 kts | 287° |
| 2026-05-08 14:44 | 28.24507 | -13.96687 | 11420 ft | 297 kts | 314° |
| 2026-05-08 14:45 | 28.26364 | -13.97954 | 11611 ft | 330 kts | 335° |
| 2026-05-08 14:45 | 28.28700 | -13.98402 | 12048 ft | 352 kts | 356° |
| 2026-05-08 14:45 | 28.31131 | -13.97989 | 12681 ft | 365 kts | 14° |
| 2026-05-08 14:45 | 28.33489 | -13.96847 | 13408 ft | 372 kts | 23° |
| 2026-05-08 14:46 | 28.35775 | -13.95439 | 14065 ft | 376 kts | 26° |
| 2026-05-08 14:46 | 28.38078 | -13.93945 | 14578 ft | 383 kts | 26° |
| 2026-05-08 14:46 | 28.40419 | -13.92441 | 15131 ft | 389 kts | 25° |
| 2026-05-08 14:46 | 28.42799 | -13.90950 | 15690 ft | 393 kts | 24° |
| 2026-05-08 14:47 | 28.45222 | -13.89471 | 16263 ft | 397 kts | 24° |
| 2026-05-08 14:47 | 28.47684 | -13.87994 | 16814 ft | 402 kts | 23° |
| 2026-05-08 14:47 | 28.50161 | -13.86526 | 17336 ft | 407 kts | 22° |
| 2026-05-08 14:47 | 28.52690 | -13.85035 | 17884 ft | 412 kts | 22° |
| 2026-05-08 14:48 | 28.55253 | -13.83527 | 18434 ft | 416 kts | 22° |
| 2026-05-08 14:48 | 28.57850 | -13.81999 | 18926 ft | 420 kts | 22° |
| 2026-05-08 14:48 | 28.60467 | -13.80458 | 19417 ft | 424 kts | 22° |
| 2026-05-08 14:48 | 28.63098 | -13.78909 | 19903 ft | 428 kts | 22° |
| 2026-05-08 14:49 | 28.65733 | -13.77355 | 20381 ft | 432 kts | 22° |
| 2026-05-08 14:49 | 28.68415 | -13.75772 | 20866 ft | 436 kts | 22° |
| 2026-05-08 14:49 | 28.71118 | -13.74176 | 21334 ft | 440 kts | 22° |
| 2026-05-08 14:49 | 28.73853 | -13.72560 | 21786 ft | 444 kts | 22° |
| 2026-05-08 14:50 | 28.76615 | -13.70927 | 22244 ft | 448 kts | 22° |
| 2026-05-08 14:50 | 28.79362 | -13.69302 | 22683 ft | 452 kts | 22° |
| 2026-05-08 14:50 | 28.82183 | -13.67631 | 23126 ft | 456 kts | 21° |
| 2026-05-08 14:50 | 28.85012 | -13.65955 | 23546 ft | 460 kts | 21° |
| 2026-05-08 14:51 | 28.87843 | -13.64276 | 23850 ft | 465 kts | 21° |
| 2026-05-08 14:51 | 28.90729 | -13.62564 | 24258 ft | 467 kts | 21° |
| 2026-05-08 14:51 | 28.93615 | -13.60850 | 24704 ft | 467 kts | 21° |
| 2026-05-08 14:51 | 28.96456 | -13.58978 | 25109 ft | 474 kts | 28° |
| 2026-05-08 14:52 | 28.99183 | -13.56816 | 25494 ft | 479 kts | 31° |
| 2026-05-08 14:52 | 29.04556 | -13.52287 | 26211 ft | 485 kts | 31° |
| 2026-05-08 14:52 | 29.07279 | -13.49999 | 26597 ft | 486 kts | 31° |
| 2026-05-08 14:53 | 29.10026 | -13.47719 | 26921 ft | 489 kts | 30° |
| 2026-05-08 14:53 | 29.12808 | -13.45433 | 27248 ft | 491 kts | 30° |
| 2026-05-08 14:53 | 29.15566 | -13.43177 | 27647 ft | 493 kts | 30° |
| 2026-05-08 14:53 | 29.18373 | -13.40882 | 27919 ft | 497 kts | 30° |
| 2026-05-08 14:54 | 29.21197 | -13.38570 | 28238 ft | 500 kts | 30° |
| 2026-05-08 14:54 | 29.24027 | -13.36247 | 28598 ft | 501 kts | 30° |
| 2026-05-08 14:54 | 29.26755 | -13.33718 | 28909 ft | 509 kts | 39° |
| 2026-05-08 14:54 | 29.29180 | -13.30726 | 29200 ft | 517 kts | 50° |
| 2026-05-08 14:55 | 29.31258 | -13.27338 | 29531 ft | 520 kts | 54° |
| 2026-05-08 14:55 | 29.33229 | -13.23907 | 29831 ft | 523 kts | 54° |
| 2026-05-08 14:55 | 29.35271 | -13.20435 | 30091 ft | 525 kts | 53° |
| 2026-05-08 14:55 | 29.37360 | -13.16986 | 30312 ft | 527 kts | 52° |
| 2026-05-08 14:56 | 29.39468 | -13.13541 | 30566 ft | 529 kts | 52° |
| 2026-05-08 14:56 | 29.41582 | -13.10084 | 30824 ft | 530 kts | 52° |
| 2026-05-08 14:56 | 29.43697 | -13.06614 | 31151 ft | 529 kts | 52° |
| 2026-05-08 14:56 | 29.45801 | -13.03150 | 31502 ft | 528 kts | 52° |
| 2026-05-08 14:57 | 29.47868 | -12.99740 | 31872 ft | 527 kts | 52° |
| 2026-05-08 14:57 | 29.49967 | -12.96272 | 32096 ft | 529 kts | 52° |
| 2026-05-08 14:57 | 29.52075 | -12.92783 | 32353 ft | 530 kts | 52° |
| 2026-05-08 14:57 | 29.54174 | -12.89303 | 32682 ft | 529 kts | 52° |
| 2026-05-08 14:58 | 29.56248 | -12.85861 | 33022 ft | 527 kts | 52° |
| 2026-05-08 14:58 | 29.58340 | -12.82388 | 33323 ft | 527 kts | 52° |
| 2026-05-08 14:58 | 29.60430 | -12.78915 | 33589 ft | 527 kts | 52° |
| 2026-05-08 14:58 | 29.62520 | -12.75441 | 33856 ft | 527 kts | 52° |
| 2026-05-08 14:59 | 29.64600 | -12.71978 | 34183 ft | 525 kts | 52° |
| 2026-05-08 14:59 | 29.68706 | -12.65137 | 34703 ft | 523 kts | 52° |
| 2026-05-08 14:59 | 29.70777 | -12.61681 | 34919 ft | 523 kts | 52° |
| 2026-05-08 15:00 | 29.74908 | -12.54776 | 34975 ft | 528 kts | 52° |
| 2026-05-08 15:00 | 29.79043 | -12.47800 | 34971 ft | 524 kts | 53° |
| 2026-05-08 15:01 | 29.83151 | -12.40845 | 34986 ft | 523 kts | 53° |
| 2026-05-08 15:01 | 29.87218 | -12.33960 | 34976 ft | 523 kts | 53° |
| 2026-05-08 15:02 | 29.91313 | -12.27017 | 34973 ft | 523 kts | 53° |
| 2026-05-08 15:02 | 29.95375 | -12.20117 | 34974 ft | 523 kts | 53° |
| 2026-05-08 15:03 | 29.99470 | -12.13151 | 34975 ft | 523 kts | 53° |
| 2026-05-08 15:03 | 30.04077 | -12.06716 | 34975 ft | 516 kts | 39° |
| 2026-05-08 15:04 | 30.09252 | -12.01019 | 34962 ft | 515 kts | 38° |
| 2026-05-08 15:04 | 30.14476 | -11.95317 | 34971 ft | 516 kts | 39° |
| 2026-05-08 15:05 | 30.19641 | -11.89585 | 34969 ft | 517 kts | 39° |
| 2026-05-08 15:05 | 30.24809 | -11.83785 | 34968 ft | 518 kts | 40° |
| 2026-05-08 15:06 | 30.29985 | -11.77955 | 34966 ft | 518 kts | 40° |
| 2026-05-08 15:06 | 30.35132 | -11.72152 | 34974 ft | 519 kts | 40° |
| 2026-05-08 15:07 | 30.40310 | -11.66309 | 34969 ft | 519 kts | 40° |
| 2026-05-08 15:07 | 30.45485 | -11.60462 | 34998 ft | 520 kts | 40° |
| 2026-05-08 15:08 | 30.49803 | -11.55577 | 34974 ft | 521 kts | 40° |
| 2026-05-08 15:08 | 30.55841 | -11.48735 | 34968 ft | 521 kts | 40° |
| 2026-05-08 15:09 | 30.61007 | -11.42870 | 34966 ft | 521 kts | 40° |
| 2026-05-08 15:09 | 30.66193 | -11.36973 | 34965 ft | 521 kts | 40° |
| 2026-05-08 15:10 | 30.71381 | -11.31065 | 34952 ft | 521 kts | 40° |
| 2026-05-08 15:10 | 30.76526 | -11.25197 | 34995 ft | 521 kts | 40° |
| 2026-05-08 15:11 | 30.81707 | -11.19277 | 34975 ft | 521 kts | 40° |
| 2026-05-08 15:11 | 30.86894 | -11.13341 | 34964 ft | 522 kts | 40° |
| 2026-05-08 15:12 | 30.92038 | -11.07446 | 34965 ft | 522 kts | 40° |
| 2026-05-08 15:12 | 30.97215 | -11.01504 | 34965 ft | 522 kts | 40° |
| 2026-05-08 15:13 | 31.01524 | -10.96550 | 34964 ft | 522 kts | 40° |
| 2026-05-08 15:13 | 31.07538 | -10.89624 | 34995 ft | 522 kts | 41° |
| 2026-05-08 15:14 | 31.11846 | -10.84657 | 34970 ft | 523 kts | 41° |
| 2026-05-08 15:14 | 31.17027 | -10.78671 | 34969 ft | 524 kts | 41° |
| 2026-05-08 15:15 | 31.22218 | -10.72666 | 34961 ft | 524 kts | 41° |
| 2026-05-08 15:15 | 31.27382 | -10.66682 | 34966 ft | 524 kts | 41° |
| 2026-05-08 15:16 | 31.32573 | -10.60657 | 34963 ft | 525 kts | 41° |
| 2026-05-08 15:16 | 31.37727 | -10.54664 | 34989 ft | 525 kts | 41° |
| 2026-05-08 15:17 | 31.42915 | -10.48622 | 34966 ft | 526 kts | 41° |
| 2026-05-08 15:17 | 31.48111 | -10.42561 | 34961 ft | 526 kts | 41° |
| 2026-05-08 15:18 | 31.53271 | -10.36532 | 34962 ft | 527 kts | 41° |
| 2026-05-08 15:18 | 31.58468 | -10.30450 | 34956 ft | 527 kts | 41° |
| 2026-05-08 15:19 | 31.63664 | -10.24358 | 34957 ft | 527 kts | 41° |
| 2026-05-08 15:19 | 31.68826 | -10.18296 | 34952 ft | 528 kts | 42° |
| 2026-05-08 15:20 | 31.74023 | -10.12184 | 34959 ft | 528 kts | 42° |
| 2026-05-08 15:20 | 31.79216 | -10.06065 | 34947 ft | 528 kts | 42° |
| 2026-05-08 15:21 | 31.84370 | -9.99982 | 34954 ft | 528 kts | 42° |
| 2026-05-08 15:21 | 31.89550 | -9.93858 | 34952 ft | 527 kts | 42° |
| 2026-05-08 15:22 | 31.94733 | -9.87720 | 34951 ft | 527 kts | 42° |
| 2026-05-08 15:22 | 31.99910 | -9.81580 | 34938 ft | 528 kts | 43° |
| 2026-05-08 15:23 | 32.05062 | -9.75457 | 34946 ft | 527 kts | 43° |
| 2026-05-08 15:23 | 32.10232 | -9.69304 | 34945 ft | 527 kts | 43° |
| 2026-05-08 15:24 | 32.15361 | -9.63189 | 34942 ft | 527 kts | 43° |
| 2026-05-08 15:24 | 32.20519 | -9.57028 | 34942 ft | 527 kts | 43° |
| 2026-05-08 15:25 | 32.25675 | -9.50860 | 34947 ft | 527 kts | 43° |
| 2026-05-08 15:25 | 32.30844 | -9.44666 | 34921 ft | 528 kts | 43° |
| 2026-05-08 15:26 | 32.35999 | -9.38476 | 34939 ft | 528 kts | 43° |
| 2026-05-08 15:26 | 32.41128 | -9.32308 | 34943 ft | 528 kts | 43° |
| 2026-05-08 15:27 | 32.46282 | -9.26099 | 34941 ft | 528 kts | 43° |
| 2026-05-08 15:27 | 32.51443 | -9.19872 | 34942 ft | 528 kts | 43° |
| 2026-05-08 15:28 | 32.56565 | -9.13680 | 34983 ft | 529 kts | 44° |
| 2026-05-08 15:28 | 32.61734 | -9.07421 | 34915 ft | 530 kts | 44° |
| 2026-05-08 15:29 | 32.66866 | -9.01195 | 34926 ft | 530 kts | 44° |
| 2026-05-08 15:29 | 32.72028 | -8.94921 | 34930 ft | 530 kts | 44° |
| 2026-05-08 15:30 | 32.77193 | -8.88634 | 34925 ft | 530 kts | 44° |
| 2026-05-08 15:30 | 32.82355 | -8.82340 | 34922 ft | 530 kts | 44° |
| 2026-05-08 15:31 | 32.87476 | -8.76082 | 34941 ft | 531 kts | 44° |
| 2026-05-08 15:31 | 32.92648 | -8.69753 | 34910 ft | 531 kts | 44° |
| 2026-05-08 15:32 | 32.97780 | -8.63460 | 34914 ft | 531 kts | 44° |
| 2026-05-08 15:32 | 33.02933 | -8.57130 | 34919 ft | 531 kts | 44° |
| 2026-05-08 15:33 | 33.08078 | -8.50799 | 34915 ft | 531 kts | 44° |
| 2026-05-08 15:33 | 33.13192 | -8.44495 | 34915 ft | 531 kts | 44° |
| 2026-05-08 15:34 | 33.18340 | -8.38169 | 34910 ft | 530 kts | 41° |
| 2026-05-08 15:34 | 33.24191 | -8.32925 | 34900 ft | 522 kts | 27° |
| 2026-05-08 15:35 | 33.30343 | -8.28412 | 34910 ft | 522 kts | 27° |
| 2026-05-08 15:35 | 33.36527 | -8.23863 | 34913 ft | 522 kts | 27° |
| 2026-05-08 15:36 | 33.42693 | -8.19241 | 34944 ft | 523 kts | 28° |
| 2026-05-08 15:36 | 33.48833 | -8.14592 | 34917 ft | 524 kts | 28° |
| 2026-05-08 15:37 | 33.55012 | -8.09899 | 34908 ft | 525 kts | 28° |
| 2026-05-08 15:37 | 33.61186 | -8.05208 | 34908 ft | 525 kts | 28° |
| 2026-05-08 15:38 | 33.67329 | -8.00535 | 34908 ft | 525 kts | 28° |
| 2026-05-08 15:38 | 33.73511 | -7.95827 | 34914 ft | 527 kts | 28° |
| 2026-05-08 15:39 | 33.79720 | -7.91088 | 34917 ft | 527 kts | 28° |
| 2026-05-08 15:39 | 33.85888 | -7.86372 | 34912 ft | 528 kts | 28° |
| 2026-05-08 15:40 | 33.92094 | -7.81619 | 34918 ft | 528 kts | 28° |
| 2026-05-08 15:40 | 33.98300 | -7.76858 | 34952 ft | 528 kts | 28° |
| 2026-05-08 15:41 | 34.04475 | -7.72112 | 34918 ft | 529 kts | 28° |
| 2026-05-08 15:41 | 34.10692 | -7.67325 | 34917 ft | 529 kts | 28° |
| 2026-05-08 15:42 | 34.16902 | -7.62535 | 34912 ft | 529 kts | 28° |
| 2026-05-08 15:42 | 34.23086 | -7.57756 | 34903 ft | 529 kts | 28° |
| 2026-05-08 15:43 | 34.29301 | -7.52947 | 34914 ft | 529 kts | 28° |
| 2026-05-08 15:43 | 34.35490 | -7.48148 | 34917 ft | 529 kts | 28° |
| 2026-05-08 15:44 | 34.41696 | -7.43326 | 34908 ft | 529 kts | 28° |
| 2026-05-08 15:44 | 34.47864 | -7.38527 | 34911 ft | 529 kts | 29° |
| 2026-05-08 15:45 | 34.53973 | -7.33765 | 34929 ft | 530 kts | 29° |
| 2026-05-08 15:45 | 34.60195 | -7.28907 | 34928 ft | 535 kts | 29° |
| 2026-05-08 15:46 | 34.66483 | -7.23991 | 34915 ft | 544 kts | 29° |
| 2026-05-08 15:46 | 34.72908 | -7.18956 | 34904 ft | 553 kts | 29° |
| 2026-05-08 15:47 | 34.79411 | -7.13848 | 34952 ft | 560 kts | 29° |
| 2026-05-08 15:47 | 34.86006 | -7.08658 | 34912 ft | 566 kts | 29° |
| 2026-05-08 15:48 | 34.95921 | -7.00835 | 34908 ft | 569 kts | 30° |
| 2026-05-08 15:49 | 35.02443 | -6.95677 | 34900 ft | 569 kts | 30° |
| 2026-05-08 15:49 | 35.09084 | -6.90415 | 34909 ft | 569 kts | 30° |
| 2026-05-08 15:50 | 35.15691 | -6.85171 | 34907 ft | 568 kts | 30° |
| 2026-05-08 15:50 | 35.22319 | -6.79898 | 34893 ft | 567 kts | 29° |
| 2026-05-08 15:51 | 35.28933 | -6.74627 | 34897 ft | 566 kts | 30° |
| 2026-05-08 15:51 | 35.35545 | -6.69350 | 34888 ft | 560 kts | 29° |
| 2026-05-08 15:51 | 35.38764 | -6.66826 | 34424 ft | 554 kts | 28° |
| 2026-05-08 15:52 | 35.42062 | -6.64290 | 33343 ft | 562 kts | 28° |
| 2026-05-08 15:52 | 35.45425 | -6.61728 | 32172 ft | 570 kts | 27° |
| 2026-05-08 15:52 | 35.48804 | -6.59150 | 31258 ft | 571 kts | 27° |
| 2026-05-08 15:52 | 35.52114 | -6.56609 | 30507 ft | 569 kts | 27° |
| 2026-05-08 15:53 | 35.55461 | -6.54028 | 29660 ft | 567 kts | 27° |
| 2026-05-08 15:53 | 35.58801 | -6.51444 | 28717 ft | 566 kts | 28° |
| 2026-05-08 15:53 | 35.62126 | -6.48867 | 27710 ft | 565 kts | 28° |
| 2026-05-08 15:53 | 35.65452 | -6.46286 | 26715 ft | 563 kts | 29° |
| 2026-05-08 15:54 | 35.68757 | -6.43719 | 25829 ft | 559 kts | 30° |
| 2026-05-08 15:54 | 35.72027 | -6.41177 | 25031 ft | 553 kts | 30° |
| 2026-05-08 15:54 | 35.75264 | -6.38659 | 24384 ft | 545 kts | 30° |
| 2026-05-08 15:54 | 35.78445 | -6.36183 | 23804 ft | 536 kts | 31° |
| 2026-05-08 15:55 | 35.81581 | -6.33740 | 23157 ft | 529 kts | 31° |
| 2026-05-08 15:55 | 35.87655 | -6.28848 | 21658 ft | 518 kts | 33° |
| 2026-05-08 15:55 | 35.90597 | -6.26314 | 20942 ft | 513 kts | 34° |
| 2026-05-08 15:56 | 35.93502 | -6.23780 | 20260 ft | 508 kts | 34° |
| 2026-05-08 15:56 | 35.96353 | -6.21295 | 19655 ft | 503 kts | 34° |
| 2026-05-08 15:56 | 35.99204 | -6.18827 | 19435 ft | 488 kts | 33° |
| 2026-05-08 15:56 | 36.01961 | -6.16454 | 19180 ft | 475 kts | 33° |
| 2026-05-08 15:57 | 36.04606 | -6.14184 | 18940 ft | 463 kts | 33° |
| 2026-05-08 15:57 | 36.07222 | -6.11943 | 18658 ft | 456 kts | 33° |
| 2026-05-08 15:57 | 36.09884 | -6.09663 | 18381 ft | 472 kts | 33° |
| 2026-05-08 15:57 | 36.12605 | -6.07330 | 18018 ft | 476 kts | 33° |
| 2026-05-08 15:58 | 36.15326 | -6.04991 | 17645 ft | 475 kts | 33° |
| 2026-05-08 15:58 | 36.18025 | -6.02666 | 17277 ft | 471 kts | 33° |
| 2026-05-08 15:58 | 36.20704 | -6.00357 | 16970 ft | 462 kts | 33° |
| 2026-05-08 15:58 | 36.23328 | -5.98121 | 16699 ft | 450 kts | 30° |
| 2026-05-08 15:59 | 36.26081 | -5.96560 | 16403 ft | 434 kts | 13° |
| 2026-05-08 15:59 | 36.28948 | -5.95547 | 16187 ft | 422 kts | 12° |
| 2026-05-08 15:59 | 36.31745 | -5.94551 | 15913 ft | 414 kts | 12° |
| 2026-05-08 15:59 | 36.34485 | -5.93557 | 15668 ft | 405 kts | 13° |
| 2026-05-08 16:00 | 36.37163 | -5.92569 | 15425 ft | 398 kts | 13° |
| 2026-05-08 16:00 | 36.39795 | -5.91586 | 15176 ft | 391 kts | 13° |
| 2026-05-08 16:00 | 36.42379 | -5.90614 | 14925 ft | 384 kts | 13° |
| 2026-05-08 16:00 | 36.44880 | -5.89669 | 14686 ft | 376 kts | 13° |
| 2026-05-08 16:01 | 36.47338 | -5.88737 | 14431 ft | 365 kts | 13° |
| 2026-05-08 16:01 | 36.49735 | -5.87827 | 14184 ft | 356 kts | 13° |
| 2026-05-08 16:01 | 36.52057 | -5.86945 | 13949 ft | 349 kts | 13° |
| 2026-05-08 16:01 | 36.54369 | -5.86068 | 13701 ft | 344 kts | 13° |
| 2026-05-08 16:02 | 36.56655 | -5.85201 | 13430 ft | 342 kts | 13° |
| 2026-05-08 16:02 | 36.58175 | -5.84625 | 13272 ft | 343 kts | 13° |
| 2026-05-08 16:02 | 36.60454 | -5.83762 | 13010 ft | 346 kts | 13° |
| 2026-05-08 16:02 | 36.62756 | -5.82888 | 12778 ft | 344 kts | 14° |
| 2026-05-08 16:03 | 36.65041 | -5.82017 | 12521 ft | 342 kts | 14° |
| 2026-05-08 16:03 | 36.67314 | -5.81151 | 12263 ft | 340 kts | 14° |
| 2026-05-08 16:03 | 36.70304 | -5.80011 | 11932 ft | 337 kts | 14° |
| 2026-05-08 16:03 | 36.71815 | -5.79434 | 11757 ft | 335 kts | 14° |
| 2026-05-08 16:04 | 36.74011 | -5.78596 | 11513 ft | 333 kts | 14° |
| 2026-05-08 16:04 | 36.76232 | -5.77748 | 11267 ft | 333 kts | 14° |
| 2026-05-08 16:04 | 36.78441 | -5.76904 | 11026 ft | 332 kts | 14° |
| 2026-05-08 16:04 | 36.80644 | -5.76062 | 10784 ft | 330 kts | 14° |
| 2026-05-08 16:05 | 36.82833 | -5.75224 | 10538 ft | 328 kts | 15° |
| 2026-05-08 16:05 | 36.85013 | -5.74390 | 10296 ft | 327 kts | 15° |
| 2026-05-08 16:05 | 36.87187 | -5.73556 | 10064 ft | 325 kts | 15° |
| 2026-05-08 16:05 | 36.89323 | -5.72738 | 9831 ft | 323 kts | 15° |
| 2026-05-08 16:06 | 36.91459 | -5.71919 | 9567 ft | 319 kts | 15° |
| 2026-05-08 16:06 | 36.93554 | -5.71114 | 9225 ft | 312 kts | 15° |
| 2026-05-08 16:06 | 36.95614 | -5.70323 | 8855 ft | 309 kts | 16° |
| 2026-05-08 16:06 | 36.97674 | -5.69532 | 8495 ft | 309 kts | 16° |
| 2026-05-08 16:07 | 36.99731 | -5.68741 | 8143 ft | 309 kts | 16° |
| 2026-05-08 16:07 | 37.01793 | -5.67949 | 7796 ft | 310 kts | 17° |
| 2026-05-08 16:07 | 37.03861 | -5.67153 | 7447 ft | 311 kts | 17° |
| 2026-05-08 16:07 | 37.05929 | -5.66357 | 7101 ft | 311 kts | 17° |
| 2026-05-08 16:08 | 37.07996 | -5.65560 | 6760 ft | 311 kts | 17° |
| 2026-05-08 16:08 | 37.10061 | -5.64764 | 6424 ft | 310 kts | 17° |
| 2026-05-08 16:08 | 37.12127 | -5.63967 | 6082 ft | 310 kts | 18° |
| 2026-05-08 16:08 | 37.14188 | -5.63171 | 5718 ft | 310 kts | 17° |
| 2026-05-08 16:09 | 37.16233 | -5.62381 | 5370 ft | 310 kts | 17° |
| 2026-05-08 16:09 | 37.18317 | -5.61713 | 5004 ft | 309 kts | 6° |
| 2026-05-08 16:09 | 37.20455 | -5.61542 | 4718 ft | 306 kts | 0° |
| 2026-05-08 16:09 | 37.22571 | -5.61468 | 4438 ft | 302 kts | 1° |
| 2026-05-08 16:10 | 37.24669 | -5.61367 | 4157 ft | 300 kts | 1° |
| 2026-05-08 16:10 | 37.26747 | -5.61245 | 3894 ft | 297 kts | 1° |
| 2026-05-08 16:10 | 37.28785 | -5.61111 | 3621 ft | 289 kts | 2° |
| 2026-05-08 16:10 | 37.30759 | -5.60977 | 3361 ft | 279 kts | 1° |
| 2026-05-08 16:11 | 37.32665 | -5.60846 | 3099 ft | 271 kts | 2° |
| 2026-05-08 16:11 | 37.34522 | -5.60717 | 2858 ft | 263 kts | 1° |
| 2026-05-08 16:11 | 37.36333 | -5.60593 | 2639 ft | 255 kts | 2° |
| 2026-05-08 16:11 | 37.38031 | -5.60475 | 2368 ft | 240 kts | 1° |
| 2026-05-08 16:12 | 37.39642 | -5.60584 | 2149 ft | 223 kts | 339° |
| 2026-05-08 16:12 | 37.40886 | -5.61555 | 2060 ft | 204 kts | 309° |
| 2026-05-08 16:12 | 37.41615 | -5.62983 | 1983 ft | 186 kts | 292° |
| 2026-05-08 16:12 | 37.41900 | -5.64450 | 1983 ft | 167 kts | 260° |
| 2026-05-08 16:13 | 37.41800 | -5.65879 | 1997 ft | 163 kts | 267° |
| 2026-05-08 16:13 | 37.41890 | -5.67288 | 1988 ft | 160 kts | 269° |
| 2026-05-08 16:13 | 37.41882 | -5.68690 | 2045 ft | 167 kts | 265° |
| 2026-05-08 16:13 | 37.41892 | -5.70125 | 1991 ft | 157 kts | 266° |
| 2026-05-08 16:14 | 37.41908 | -5.71410 | 1997 ft | 144 kts | 259° |
| 2026-05-08 16:14 | 37.41869 | -5.72664 | 1998 ft | 142 kts | 264° |
| 2026-05-08 16:14 | 37.41866 | -5.73932 | 1987 ft | 145 kts | 262° |
| 2026-05-08 16:14 | 37.41909 | -5.75141 | 1932 ft | 136 kts | 264° |
| 2026-05-08 16:15 | 37.41945 | -5.76341 | 1890 ft | 136 kts | 264° |
| 2026-05-08 16:15 | 37.41899 | -5.77536 | 1814 ft | 140 kts | 260° |
| 2026-05-08 16:15 | 37.41818 | -5.78756 | 1687 ft | 140 kts | 260° |
| 2026-05-08 16:15 | 37.41807 | -5.80014 | 1392 ft | 152 kts | 265° |
| 2026-05-08 16:16 | 37.41816 | -5.81346 | 1145 ft | 151 kts | 264° |
| 2026-05-08 16:16 | 37.41816 | -5.82641 | 892 ft | 144 kts | 263° |
| 2026-05-08 16:16 | 37.41803 | -5.83871 | 717 ft | 136 kts | 264° |
| 2026-05-08 16:16 | 37.41787 | -5.85053 | 523 ft | 133 kts | 268° |
| 2026-05-08 16:17 | 37.41792 | -5.86233 | 334 ft | 134 kts | 266° |
| 2026-05-08 16:17 | 37.41795 | -5.87422 | 185 ft | 136 kts | 265° |
| 2026-05-08 16:17 | 37.41795 | -5.88537 | 105 ft | 110 kts | 268° |
| 2026-05-08 16:17 | 37.41795 | -5.89233 | 99 ft | 52 kts | 270° |
| 2026-05-08 16:18 | 37.41792 | -5.89578 | 97 ft | 24 kts | 270° |
| 2026-05-08 16:18 | 37.41794 | -5.89717 | 97 ft | 14 kts | 277° |
| 2026-05-08 16:18 | 37.41855 | -5.89807 | 96 ft | 14 kts | 335° |
| 2026-05-08 16:18 | 37.41928 | -5.89846 | 97 ft | 3 kts | 337° |
| 2026-05-08 16:19 | 37.41948 | -5.89857 | 97 ft | 4 kts | 337° |
| 2026-05-08 16:19 | 37.41957 | -5.89861 | 97 ft | 0 kts | 337° |
| 2026-05-08 16:20 | 37.41964 | -5.89865 | 96 ft | 5 kts | 337° |
| 2026-05-08 16:21 | 37.41999 | -5.89884 | 97 ft | 6 kts | 337° |
| 2026-05-08 16:21 | 37.42041 | -5.89909 | 94 ft | 7 kts | 322° |
| 2026-05-08 16:21 | 37.42052 | -5.89967 | 93 ft | 7 kts | 271° |
| 2026-05-08 16:21 | 37.42052 | -5.90029 | 93 ft | 8 kts | 270° |
| 2026-05-08 16:22 | 37.42052 | -5.90112 | 93 ft | 11 kts | 270° |
| 2026-05-08 16:22 | 37.42052 | -5.90169 | 93 ft | 8 kts | 270° |
| 2026-05-08 16:22 | 37.42051 | -5.90249 | 93 ft | 8 kts | 269° |
| 2026-05-08 16:22 | 37.42061 | -5.90279 | 96 ft | 1 kts | 3° |
| 2026-05-08 16:23 | 37.42070 | -5.90272 | 95 ft | 2 kts | 32° |
| 2026-05-08 16:23 | 37.42087 | -5.90257 | 93 ft | 4 kts | 33° |
| 2026-05-08 16:23 | 37.42104 | -5.90242 | 93 ft | 3 kts | 33° |
| 2026-05-08 16:23 | 37.42107 | -5.90240 | 94 ft | 0 kts | 33° |
| 2026-05-08 16:31 | 37.42121 | -5.90318 | 93 ft | 0 kts | 33° |
| 2026-05-08 16:31 | 37.42171 | -5.89972 | 93 ft | 382 kts | 33° |
| 2026-05-08 16:31 | 37.42080 | -5.89950 | 93 ft | 382 kts | 33° |
| 2026-05-08 16:31 | 37.42108 | -5.90234 | 93 ft | 0 kts | 33° |